Time;durP1;ratioP1;P1;durP2;ratioP2;P2;SDS_P1;SDS_P2;PMS_P1;PMS_P2;Temp;Humidity;BMP_temperature;BMP_pressure;BME280_temperature;BME280_humidity;BME280_pressure;Samples;Min_cycle;Max_cycle;Signal;HPM_P1;HPM_P2
2021/04/14 00:00:51;;;;;;;0.75;0.75;;;3.60;65.60;;;;;;5031782;28;20068;-74
2021/04/14 00:03:20;;;;;;;0.60;0.60;;;3.60;65.60;;;;;;5031948;28;20990;-74
2021/04/14 00:05:46;;;;;;;;;;;3.60;65.60;;;;;;5031837;28;20021;-74
2021/04/14 00:08:12;;;;;;;0.35;0.35;;;3.60;65.50;;;;;;5033182;28;19905;-74
2021/04/14 00:10:38;;;;;;;0.40;0.40;;;3.70;65.60;;;;;;5033273;28;20022;-74
2021/04/14 00:13:08;;;;;;;0.65;0.40;;;3.80;65.60;;;;;;5033252;28;20025;-74
2021/04/14 00:15:37;;;;;;;0.50;0.50;;;3.90;65.50;;;;;;5033010;28;20120;-74
2021/04/14 00:18:04;;;;;;;0.70;0.60;;;4.00;65.40;;;;;;5033101;28;20018;-74
2021/04/14 00:20:30;;;;;;;0.43;0.43;;;4.00;65.30;;;;;;5032672;28;20029;-74
2021/04/14 00:22:56;;;;;;;0.57;0.55;;;4.10;65.30;;;;;;5032947;28;20027;-73
2021/04/14 00:25:26;;;;;;;0.90;0.70;;;4.20;65.30;;;;;;5032939;28;20057;-74
2021/04/14 00:27:52;;;;;;;0.40;0.40;;;4.30;65.20;;;;;;5033032;28;20032;-74
2021/04/14 00:30:18;;;;;;;0.93;0.60;;;4.30;65.20;;;;;;5033029;28;20018;-74
2021/04/14 00:32:44;;;;;;;0.73;0.73;;;4.40;65.30;;;;;;5032992;28;20034;-74
2021/04/14 00:35:10;;;;;;;0.60;0.60;;;4.30;65.40;;;;;;5032486;28;20026;-74
2021/04/14 00:37:36;;;;;;;0.57;0.57;;;4.30;65.50;;;;;;5032949;28;20040;-74
2021/04/14 00:40:05;;;;;;;0.95;0.80;;;4.30;65.60;;;;;;5032947;28;20018;-74
2021/04/14 00:42:31;;;;;;;0.43;0.43;;;4.30;65.80;;;;;;5032852;28;20057;-73
2021/04/14 00:44:56;;;;;;;0.63;0.63;;;4.40;65.80;;;;;;5032995;28;20052;-73
2021/04/14 00:47:22;;;;;;;0.60;0.60;;;4.40;65.70;;;;;;5032738;28;20029;-74
2021/04/14 00:49:48;;;;;;;1.52;0.90;;;4.50;65.80;;;;;;5031121;28;20056;-74
2021/04/14 00:52:15;;;;;;;0.70;0.65;;;4.50;65.80;;;;;;5035668;28;20022;-74
2021/04/14 00:54:40;;;;;;;0.80;0.80;;;4.50;65.80;;;;;;5036592;28;20056;-74
2021/04/14 00:57:06;;;;;;;1.05;0.82;;;4.50;65.80;;;;;;5036449;28;20478;-74
2021/04/14 00:59:32;;;;;;;0.60;0.60;;;4.50;65.90;;;;;;5036695;28;20103;-74
2021/04/14 01:01:57;;;;;;;0.52;0.52;;;4.60;66.00;;;;;;5036337;28;20080;-74
2021/04/14 01:04:23;;;;;;;0.45;0.45;;;4.60;66.00;;;;;;5036099;28;20373;-74
2021/04/14 01:06:49;;;;;;;0.63;0.60;;;4.60;66.10;;;;;;5035089;28;20429;-74
2021/04/14 01:09:14;;;;;;;0.43;0.43;;;4.60;66.10;;;;;;5036288;28;20075;-74
2021/04/14 01:11:40;;;;;;;0.60;0.60;;;4.60;66.10;;;;;;5036130;28;20029;-74
2021/04/14 01:14:06;;;;;;;0.60;0.60;;;4.60;66.20;;;;;;5036460;28;20044;-74
2021/04/14 01:16:31;;;;;;;0.70;0.70;;;4.60;66.30;;;;;;5036102;28;20088;-74
2021/04/14 01:18:57;;;;;;;0.60;0.60;;;4.60;66.40;;;;;;5035625;28;20013;-73
2021/04/14 01:21:25;;;;;;;1.02;0.82;;;4.60;66.60;;;;;;5036028;28;20109;-73
2021/04/14 01:23:51;;;;;;;0.60;0.60;;;4.50;66.70;;;;;;5036130;28;20401;-73
2021/04/14 01:26:17;;;;;;;0.52;0.52;;;4.50;66.80;;;;;;5035900;28;20075;-74
2021/04/14 01:28:47;;;;;;;1.17;0.82;;;4.50;66.90;;;;;;5034712;28;20018;-74
2021/04/14 01:31:16;;;;;;;1.10;1.00;;;4.50;67.00;;;;;;5035834;28;20025;-74
2021/04/14 01:33:41;;;;;;;0.60;0.60;;;4.50;67.00;;;;;;5035476;28;20029;-74
2021/04/14 01:36:09;;;;;;;0.80;0.80;;;4.50;67.70;;;;;;5035812;28;20033;-74
2021/04/14 01:38:35;;;;;;;0.82;0.82;;;4.50;67.00;;;;;;5035744;28;20031;-74
2021/04/14 01:41:02;;;;;;;0.63;0.63;;;4.50;67.10;;;;;;5035826;28;20044;-74
2021/04/14 01:43:28;;;;;;;0.88;0.88;;;4.50;67.10;;;;;;5035780;28;20486;-74
2021/04/14 01:45:54;;;;;;;0.63;0.63;;;4.50;67.10;;;;;;5035622;28;20115;-74
2021/04/14 01:48:19;;;;;;;0.70;0.70;;;4.50;67.10;;;;;;5035186;28;20095;-73
2021/04/14 01:50:45;;;;;;;1.05;0.73;;;4.50;67.20;;;;;;5035492;28;20153;-74
2021/04/14 01:53:14;;;;;;;0.45;0.45;;;4.50;67.20;;;;;;5035518;28;20084;-74
2021/04/14 01:55:40;;;;;;;0.70;0.70;;;4.50;67.30;;;;;;5035430;28;20132;-73
2021/04/14 01:58:08;;;;;;;0.82;0.70;;;4.50;67.30;;;;;;5035456;28;20529;-73
2021/04/14 02:00:43;;;;;;;0.52;0.52;;;4.50;67.30;;;;;;5035052;28;20048;-74
2021/04/14 02:03:09;;;;;;;0.77;0.77;;;4.50;67.40;;;;;;5034983;28;20021;-74
2021/04/14 02:05:35;;;;;;;0.77;0.77;;;4.50;67.50;;;;;;5035308;28;20057;-74
2021/04/14 02:08:01;;;;;;;0.60;0.60;;;4.50;67.50;;;;;;5035263;28;20039;-74
2021/04/14 02:10:30;;;;;;;0.63;0.63;;;4.50;67.50;;;;;;5035056;28;20030;-74
2021/04/14 02:12:56;;;;;;;0.60;0.60;;;4.50;67.40;;;;;;5035215;28;20386;-74
2021/04/14 02:15:25;;;;;;;0.95;0.95;;;4.50;67.40;;;;;;5034487;28;20072;-73
2021/04/14 02:17:51;;;;;;;0.40;0.40;;;4.50;67.40;;;;;;5035149;28;20199;-73
2021/04/14 02:20:17;;;;;;;0.70;0.68;;;4.50;67.40;;;;;;5035508;28;20458;-74
2021/04/14 02:22:43;;;;;;;0.60;0.52;;;4.50;67.40;;;;;;5034984;28;20041;-74
2021/04/14 02:25:11;;;;;;;0.60;0.60;;;4.50;67.40;;;;;;5034933;28;20053;-74
2021/04/14 02:27:37;;;;;;;0.40;0.40;;;4.40;67.40;;;;;;5033673;28;20024;-74
2021/04/14 02:30:15;;;;;;;0.60;0.60;;;4.40;67.60;;;;;;5034505;28;20029;-74
2021/04/14 02:32:40;;;;;;;1.17;0.82;;;4.40;67.70;;;;;;5034726;28;20104;-74
2021/04/14 02:35:06;;;;;;;0.68;0.68;;;4.40;67.80;;;;;;5034767;28;20179;-74
2021/04/14 02:37:32;;;;;;;0.60;0.60;;;4.30;67.80;;;;;;5033428;28;20033;-74
2021/04/14 02:39:57;;;;;;;0.50;0.50;;;4.30;67.90;;;;;;5034684;28;20021;-74
2021/04/14 02:42:23;;;;;;;0.57;0.57;;;4.40;68.10;;;;;;5034401;28;20030;-74
2021/04/14 02:44:48;;;;;;;0.80;0.80;;;4.40;68.10;;;;;;5034167;28;20034;-74
2021/04/14 02:47:14;;;;;;;0.82;0.82;;;4.40;68.00;;;;;;5033242;28;20107;-74
2021/04/14 02:49:39;;;;;;;0.70;0.70;;;4.40;68.00;;;;;;5034373;28;20523;-74
2021/04/14 02:52:05;;;;;;;0.50;0.50;;;4.40;68.10;;;;;;5034347;28;20034;-74
2021/04/14 02:54:31;;;;;;;0.70;0.65;;;4.40;68.10;;;;;;5034315;28;20029;-74
2021/04/14 02:56:56;;;;;;;1.27;0.70;;;4.50;68.10;;;;;;5034289;28;20128;-74
2021/04/14 02:59:22;;;;;;;0.65;0.65;;;4.50;68.10;;;;;;5032581;28;20048;-74
2021/04/14 03:01:47;;;;;;;0.70;0.70;;;4.50;68.20;;;;;;5034161;28;20044;-73
2021/04/14 03:04:15;;;;;;;0.60;0.60;;;4.50;68.20;;;;;;5034135;28;20435;-74
2021/04/14 03:06:40;;;;;;;0.60;0.60;;;4.50;68.10;;;;;;5034144;28;20021;-73
2021/04/14 03:09:06;;;;;;;0.60;0.60;;;4.50;68.10;;;;;;5034260;28;20017;-74
2021/04/14 03:11:31;;;;;;;0.68;0.60;;;4.50;68.00;;;;;;5033979;28;20036;-74
2021/04/14 03:13:57;;;;;;;0.77;0.77;;;4.40;68.10;;;;;;5033035;28;20089;-74
2021/04/14 03:16:24;;;;;;;0.75;0.75;;;4.30;68.20;;;;;;5033772;28;20489;-74
2021/04/14 03:18:49;;;;;;;0.90;0.90;;;4.30;68.30;;;;;;5033940;28;20028;-74
2021/04/14 03:21:15;;;;;;;0.85;0.80;;;4.20;68.40;;;;;;5034011;28;20029;-73
2021/04/14 03:23:41;;;;;;;1.10;0.75;;;4.10;68.60;;;;;;5032547;28;20018;-74
2021/04/14 03:26:07;;;;;;;0.80;0.80;;;4.00;68.60;;;;;;5033901;28;20481;-74
2021/04/14 03:28:33;;;;;;;0.80;0.80;;;4.00;68.60;;;;;;5033344;28;20474;-74
2021/04/14 03:30:59;;;;;;;0.88;0.68;;;3.90;68.70;;;;;;5033696;28;20104;-74
2021/04/14 03:33:24;;;;;;;1.05;0.82;;;3.90;68.70;;;;;;5033650;28;20140;-73
2021/04/14 03:35:50;;;;;;;1.10;1.00;;;3.90;68.70;;;;;;5033538;28;20514;-74
2021/04/14 03:38:15;;;;;;;0.70;0.60;;;3.90;68.80;;;;;;5033574;28;20017;-74
2021/04/14 03:40:41;;;;;;;1.05;0.73;;;3.90;68.50;;;;;;5033523;28;20381;-74
2021/04/14 03:43:06;;;;;;;0.50;0.50;;;3.90;68.40;;;;;;5033167;28;20057;-74
2021/04/14 03:45:38;;;;;;;0.70;0.70;;;3.90;68.30;;;;;;5033723;28;20036;-74
2021/04/14 03:48:05;;;;;;;0.80;0.80;;;3.90;68.30;;;;;;5033528;28;20018;-73
2021/04/14 03:50:31;;;;;;;1.35;1.17;;;3.90;68.20;;;;;;5033338;28;20091;-74
2021/04/14 03:53:12;;;;;;;1.60;1.17;;;3.80;68.40;;;;;;5033358;28;20466;-74
2021/04/14 03:55:37;;;;;;;0.95;0.90;;;3.70;68.70;;;;;;5033385;28;20080;-74
2021/04/14 03:58:03;;;;;;;1.80;1.17;;;3.50;69.00;;;;;;5032868;28;20026;-73
2021/04/14 04:00:28;;;;;;;1.15;1.00;;;3.40;69.30;;;;;;5032970;28;20080;-73
2021/04/14 04:02:54;;;;;;;2.08;1.23;;;3.30;69.60;;;;;;5033317;28;20036;-73
2021/04/14 04:05:19;;;;;;;1.88;1.60;;;3.20;69.80;;;;;;5033195;28;20032;-74
2021/04/14 04:07:45;;;;;;;1.35;1.00;;;3.10;69.90;;;;;;5033284;28;20026;-74
2021/04/14 04:10:11;;;;;;;1.70;1.17;;;3.10;69.90;;;;;;5033144;28;20009;-74
2021/04/14 04:12:36;;;;;;;0.95;0.95;;;3.20;69.90;;;;;;5032735;28;20033;-74
2021/04/14 04:15:04;;;;;;;1.42;1.15;;;3.20;69.70;;;;;;5031733;28;20124;-73
2021/04/14 04:17:29;;;;;;;1.42;1.23;;;3.30;69.50;;;;;;5031797;28;20032;-73
2021/04/14 04:19:55;;;;;;;1.85;1.23;;;3.30;69.40;;;;;;5031887;28;20014;-73
2021/04/14 04:22:21;;;;;;;1.45;1.10;;;3.20;69.40;;;;;;5033205;28;20416;-74
2021/04/14 04:24:48;;;;;;;2.05;1.45;;;3.20;69.50;;;;;;5033088;28;20496;-74
2021/04/14 04:27:14;;;;;;;1.25;1.15;;;3.20;69.70;;;;;;5035612;28;20109;-73
2021/04/14 04:29:40;;;;;;;1.20;1.10;;;3.20;69.70;;;;;;5037129;28;20057;-74
2021/04/14 04:32:06;;;;;;;1.80;1.05;;;3.20;69.70;;;;;;5036845;28;20056;-74
2021/04/14 04:34:31;;;;;;;1.25;1.13;;;3.30;69.70;;;;;;5037029;28;20386;-74
2021/04/14 04:36:57;;;;;;;1.30;1.20;;;3.40;69.70;;;;;;5036905;28;20059;-74
2021/04/14 04:39:23;;;;;;;1.33;1.15;;;3.40;69.60;;;;;;5036861;28;20071;-74
2021/04/14 04:41:48;;;;;;;2.15;1.10;;;3.30;69.70;;;;;;5036395;28;20033;-74
2021/04/14 04:44:14;;;;;;;0.95;0.90;;;3.30;69.80;;;;;;5036666;28;20014;-74
2021/04/14 04:46:40;;;;;;;1.10;1.00;;;3.30;69.90;;;;;;5036752;28;20025;-74
2021/04/14 04:49:05;;;;;;;0.68;0.68;;;3.30;69.90;;;;;;5036753;28;20033;-74
2021/04/14 04:51:31;;;;;;;0.63;0.63;;;3.40;69.90;;;;;;5036719;28;20103;-74
2021/04/14 04:53:57;;;;;;;0.90;0.90;;;3.40;69.80;;;;;;5036724;28;20474;-74
2021/04/14 04:56:22;;;;;;;0.80;0.80;;;3.50;69.70;;;;;;5035950;28;20034;-73
2021/04/14 04:58:48;;;;;;;1.08;1.00;;;3.60;69.60;;;;;;5036442;28;20359;-74
2021/04/14 05:01:13;;;;;;;1.25;0.90;;;3.70;69.40;;;;;;5036399;28;20509;-74
2021/04/14 05:03:39;;;;;;;0.70;0.68;;;3.70;69.20;;;;;;5036504;28;20028;-74
2021/04/14 05:06:05;;;;;;;0.70;0.70;;;3.80;69.20;;;;;;5036462;28;20026;-74
2021/04/14 05:08:31;;;;;;;1.08;0.88;;;3.80;69.10;;;;;;5036380;28;20030;-74
2021/04/14 05:10:57;;;;;;;1.67;1.15;;;3.80;69.10;;;;;;5035752;28;20024;-74
2021/04/14 05:13:22;;;;;;;0.88;0.85;;;3.90;69.20;;;;;;5036182;28;20378;-74
2021/04/14 05:15:48;;;;;;;0.80;0.80;;;3.90;69.20;;;;;;5036111;28;20041;-74
2021/04/14 05:18:13;;;;;;;1.05;0.77;;;4.00;69.10;;;;;;5036201;28;20063;-74
2021/04/14 05:20:39;;;;;;;0.77;0.68;;;4.20;69.00;;;;;;5036176;28;20057;-74
2021/04/14 05:23:07;;;;;;;0.65;0.65;;;4.30;68.80;;;;;;5035980;28;20025;-72
2021/04/14 05:25:34;;;;;;;0.73;0.73;;;4.40;68.60;;;;;;5035505;28;20029;-73
2021/04/14 05:28:06;;;;;;;1.08;1.00;;;4.40;68.70;;;;;;5035893;28;20017;-71
2021/04/14 05:30:32;;;;;;;0.75;0.75;;;4.40;68.80;;;;;;5035962;28;20021;-70
2021/04/14 05:32:58;;;;;;;0.70;0.70;;;4.40;68.90;;;;;;5035804;28;20351;-71
2021/04/14 05:35:24;;;;;;;1.08;0.82;;;4.50;69.00;;;;;;5035756;28;20029;-72
2021/04/14 05:37:49;;;;;;;0.57;0.55;;;4.50;69.00;;;;;;5035350;28;20025;-73
2021/04/14 05:40:16;;;;;;;1.10;1.00;;;4.60;68.90;;;;;;5034139;28;20469;-72
2021/04/14 05:42:44;;;;;;;0.80;0.80;;;4.60;68.80;;;;;;5034491;28;20115;-73
2021/04/14 05:45:13;;;;;;;0.60;0.60;;;4.70;68.90;;;;;;5035664;28;20037;-73
2021/04/14 05:47:38;;;;;;;1.52;1.00;;;4.70;68.80;;;;;;5035701;28;20024;-73
2021/04/14 05:50:08;;;;;;;0.82;0.80;;;4.80;68.80;;;;;;5035582;28;20104;-73
2021/04/14 05:52:34;;;;;;;0.77;0.73;;;4.90;68.70;;;;;;5035445;28;20096;-74
2021/04/14 05:54:59;;;;;;;0.82;0.65;;;4.90;68.50;;;;;;5034828;28;20470;-73
2021/04/14 05:57:25;;;;;;;1.13;0.68;;;5.00;68.40;;;;;;5034191;28;20347;-73
2021/04/14 05:59:50;;;;;;;0.90;0.90;;;5.00;68.40;;;;;;5035143;28;20382;-73
2021/04/14 06:02:16;;;;;;;0.65;0.65;;;5.10;68.40;;;;;;5035223;28;20041;-73
2021/04/14 06:04:41;;;;;;;0.93;0.85;;;5.20;68.30;;;;;;5035377;28;20432;-73
2021/04/14 06:07:07;;;;;;;0.60;0.60;;;5.30;68.20;;;;;;5033847;28;20029;-73
2021/04/14 06:09:33;;;;;;;0.73;0.70;;;5.50;68.00;;;;;;5056471;22;20124;-76
2021/04/14 06:11:59;;;;;;;0.80;0.80;;;5.60;67.90;;;;;;5075238;28;20029;-79
2021/04/14 06:14:24;;;;;;;0.95;0.85;;;5.70;67.70;;;;;;5075020;28;20033;-77
2021/04/14 06:16:50;;;;;;;1.10;1.00;;;5.80;67.60;;;;;;5060009;28;20086;-77
2021/04/14 06:19:15;;;;;;;0.73;0.73;;;5.90;67.60;;;;;;5053963;28;20060;-77
2021/04/14 06:21:41;;;;;;;0.93;0.88;;;6.00;67.60;;;;;;5055401;28;20032;-76
2021/04/14 06:24:08;;;;;;;0.85;0.80;;;6.10;67.50;;;;;;5054744;28;20029;-77
2021/04/14 06:26:47;;;;;;;1.05;0.93;;;6.20;67.50;;;;;;5054795;28;20021;-76
2021/04/14 06:29:13;;;;;;;1.13;0.98;;;6.30;67.60;;;;;;5069053;28;20025;-77
2021/04/14 06:31:42;;;;;;;0.90;0.90;;;6.20;67.60;;;;;;5072097;28;20025;-77
2021/04/14 06:34:16;;;;;;;1.13;0.98;;;6.20;67.80;;;;;;5070634;28;20025;-77
2021/04/14 06:36:50;;;;;;;1.05;1.05;;;6.20;68.10;;;;;;5066250;28;20048;-78
2021/04/14 06:39:17;;;;;;;1.75;1.20;;;6.10;68.20;;;;;;5061562;28;20020;-77
2021/04/14 06:42:11;;;;;;;1.85;1.38;;;6.10;68.30;;;;;;5058059;28;20413;-77
2021/04/14 06:44:57;;;;;;;1.13;1.00;;;6.10;68.50;;;;;;5051785;28;20029;-78
2021/04/14 06:47:43;;;;;;;1.42;1.13;;;6.10;68.50;;;;;;5051904;28;20024;-77
2021/04/14 06:50:20;;;;;;;1.35;1.00;;;6.10;68.50;;;;;;5049863;28;20028;-78
2021/04/14 06:52:58;;;;;;;1.10;1.00;;;6.20;68.50;;;;;;5051317;28;20025;-77
2021/04/14 06:55:28;;;;;;;1.88;1.70;;;6.30;68.30;;;;;;5051521;28;20033;-77
2021/04/14 06:58:00;;;;;;;1.52;1.10;;;6.40;68.20;;;;;;5051333;28;20095;-77
2021/04/14 07:00:51;;;;;;;1.88;1.40;;;6.50;68.10;;;;;;5054272;28;20477;-75
2021/04/14 07:03:28;;;;;;;1.00;0.93;;;6.50;68.00;;;;;;5052010;28;20021;-75
2021/04/14 07:06:01;;;;;;;1.58;1.48;;;6.60;68.00;;;;;;5057783;28;20028;-76
2021/04/14 07:08:33;;;;;;;1.60;1.20;;;6.80;67.80;;;;;;5072212;28;20024;-76
2021/04/14 07:11:02;;;;;;;1.17;1.10;;;7.00;67.50;;;;;;5074051;28;20059;-76
2021/04/14 07:13:30;;;;;;;0.98;0.98;;;7.20;67.20;;;;;;5055766;28;20017;-77
2021/04/14 07:16:30;;;;;;;1.45;1.30;;;7.50;67.00;;;;;;5054442;28;20060;-77
2021/04/14 07:19:05;;;;;;;1.92;1.70;;;7.70;66.50;;;;;;5053987;28;20029;-78
2021/04/14 07:21:48;;;;;;;1.92;1.27;;;7.90;66.20;;;;;;5053408;28;20473;-75
2021/04/14 07:24:45;;;;;;;2.45;1.60;;;7.80;66.50;;;;;;5054115;28;20025;-77
2021/04/14 07:27:48;;;;;;;2.05;1.45;;;7.70;66.80;;;;;;5052506;28;20021;-76
2021/04/14 07:30:22;;;;;;;1.88;1.40;;;7.60;67.40;;;;;;5053489;28;20059;-78
2021/04/14 07:33:16;;;;;;;2.13;1.50;;;7.50;67.70;;;;;;5053870;28;20025;-76
2021/04/14 07:36:13;;;;;;;2.63;1.70;;;7.30;68.00;;;;;;5051741;28;20040;-78
2021/04/14 07:38:46;;;;;;;1.30;1.20;;;7.00;68.50;;;;;;5057548;28;20019;-77
2021/04/14 07:41:39;;;;;;;1.40;1.30;;;6.80;69.20;;;;;;5053105;28;20174;-77
2021/04/14 07:44:14;;;;;;;1.42;1.33;;;6.70;69.60;;;;;;5052102;28;20025;-77
2021/04/14 07:46:46;;;;;;;1.88;1.50;;;6.70;69.70;;;;;;5053533;28;20541;-78
2021/04/14 07:49:12;;;;;;;1.40;1.30;;;6.60;69.80;;;;;;5051872;28;20366;-77
2021/04/14 07:51:39;;;;;;;2.28;1.83;;;6.60;69.80;;;;;;5053518;28;20131;-76
2021/04/14 07:54:14;;;;;;;4.72;2.30;;;6.70;69.70;;;;;;5053839;28;20025;-75
2021/04/14 07:56:55;;;;;;;2.83;2.53;;;6.60;69.50;;;;;;5053916;28;20028;-75
2021/04/14 07:59:31;;;;;;;1.52;1.42;;;6.60;69.60;;;;;;5072376;28;20025;-78
2021/04/14 08:01:58;;;;;;;1.83;1.35;;;6.50;69.80;;;;;;5074515;28;20071;-77
2021/04/14 08:04:32;;;;;;;3.45;2.30;;;6.20;70.10;;;;;;5074718;28;20031;-78
2021/04/14 08:07:19;;;;;;;2.40;1.60;;;6.00;70.50;;;;;;5074188;28;20025;-77
2021/04/14 08:09:57;;;;;;;2.40;1.45;;;5.90;70.70;;;;;;5073299;28;20044;-77
2021/04/14 08:12:30;;;;;;;2.92;1.77;;;5.90;70.80;;;;;;5073795;28;20020;-78
2021/04/14 08:15:13;;;;;;;1.95;1.65;;;5.90;70.70;;;;;;5073944;28;20025;-77
2021/04/14 08:17:40;;;;;;;1.80;1.70;;;6.00;70.50;;;;;;5071939;28;20041;-77
2021/04/14 08:20:13;;;;;;;1.60;1.33;;;6.10;70.30;;;;;;5068174;28;20058;-77
2021/04/14 08:22:38;;;;;;;1.50;1.35;;;6.20;70.10;;;;;;5061850;28;20098;-77
2021/04/14 08:25:07;;;;;;;2.50;1.70;;;6.40;70.00;;;;;;5052849;28;20525;-77
2021/04/14 08:27:38;;;;;;;2.67;1.85;;;6.50;69.80;;;;;;5061625;28;20032;-77
2021/04/14 08:30:13;;;;;;;2.65;1.80;;;6.60;69.60;;;;;;5054603;28;20017;-77
2021/04/14 08:32:43;;;;;;;1.85;1.42;;;6.80;69.50;;;;;;5058926;28;20408;-76
2021/04/14 08:35:36;;;;;;;2.80;1.70;;;6.90;69.20;;;;;;5072897;28;20025;-77
2021/04/14 08:38:25;;;;;;;2.65;1.80;;;7.30;68.70;;;;;;5072968;28;20069;-76
2021/04/14 08:40:57;;;;;;;1.83;1.53;;;7.40;68.20;;;;;;5057743;28;20442;-77
2021/04/14 08:43:43;;;;;;;2.38;1.70;;;7.60;68.20;;;;;;5063173;28;20294;-76
2021/04/14 08:46:11;;;;;;;1.60;1.45;;;7.80;68.00;;;;;;5051640;28;20029;-76
2021/04/14 08:48:38;;;;;;;3.40;2.10;;;8.00;68.00;;;;;;5064353;28;20615;-77
2021/04/14 08:51:04;;;;;;;2.40;2.17;;;8.10;67.80;;;;;;5071084;28;20061;-75
2021/04/14 08:53:42;;;;;;;2.00;1.60;;;8.00;67.80;;;;;;5072728;28;20090;-76
2021/04/14 08:56:08;;;;;;;1.83;1.70;;;8.00;68.00;;;;;;5072172;28;20181;-76
2021/04/14 08:58:34;;;;;;;2.33;1.67;;;8.10;68.10;;;;;;5052655;28;20138;-77
2021/04/14 09:01:01;;;;;;;3.13;2.20;;;8.20;67.70;;;;;;5052535;28;20381;-77
2021/04/14 09:03:31;;;;;;;3.17;2.10;;;8.30;67.70;;;;;;5052209;28;20048;-76
2021/04/14 09:05:58;;;;;;;2.40;1.90;;;8.20;67.80;;;;;;5052634;28;20017;-76
2021/04/14 09:08:30;;;;;;;2.20;1.98;;;8.10;68.00;;;;;;5055982;28;20393;-77
2021/04/14 09:11:00;;;;;;;4.72;3.30;;;8.10;68.10;;;;;;5072455;28;20041;-76
2021/04/14 09:13:45;;;;;;;4.50;3.25;;;8.00;68.20;;;;;;5072838;28;20039;-76
2021/04/14 09:16:13;;;;;;;5.95;4.03;;;7.80;68.90;;;;;;5055684;28;20032;-77
2021/04/14 09:18:42;;;;;;;5.60;4.38;;;7.80;68.60;;;;;;5054933;28;20373;-74
2021/04/14 09:21:18;;;;;;;7.30;3.60;;;7.90;68.50;;;;;;5058334;28;20134;-75
2021/04/14 09:23:59;;;;;;;4.13;2.83;;;8.10;68.20;;;;;;5076253;28;20096;-77
2021/04/14 09:26:31;;;;;;;4.60;2.95;;;8.20;67.80;;;;;;5075921;28;20036;-76
2021/04/14 09:28:59;;;;;;;3.20;2.40;;;8.20;68.00;;;;;;5076063;28;20551;-77
2021/04/14 09:31:40;;;;;;;4.60;2.97;;;8.30;68.20;;;;;;5064580;28;20091;-76
2021/04/14 09:34:10;;;;;;;4.63;3.80;;;8.20;68.10;;;;;;5062139;28;20052;-74
2021/04/14 09:36:46;;;;;;;4.95;3.90;;;8.00;68.40;;;;;;5072350;28;20078;-76
2021/04/14 09:39:27;;;;;;;4.85;3.30;;;7.80;68.70;;;;;;5075567;28;20044;-75
2021/04/14 09:41:53;;;;;;;4.50;3.05;;;7.50;68.90;;;;;;5075561;28;20544;-75
2021/04/14 09:44:38;;;;;;;4.35;3.63;;;7.30;69.20;;;;;;5075585;28;20056;-76
2021/04/14 09:47:15;;;;;;;4.57;2.95;;;7.30;69.40;;;;;;5074861;28;20380;-76
2021/04/14 09:49:44;;;;;;;3.90;3.00;;;7.20;70.00;;;;;;5055627;28;20059;-74
2021/04/14 09:52:31;;;;;;;4.28;2.78;;;7.20;69.40;;;;;;5054528;28;20019;-76
2021/04/14 09:55:22;;;;;;;3.67;2.40;;;7.10;69.30;;;;;;5060306;28;20055;-75
2021/04/14 09:57:50;;;;;;;2.97;2.20;;;7.00;69.50;;;;;;5075458;28;20032;-76
2021/04/14 10:00:19;;;;;;;3.35;2.53;;;6.90;69.60;;;;;;5074748;28;20017;-75
2021/04/14 10:02:47;;;;;;;;;;;6.80;69.80;;;;;;5075514;28;20149;-77
2021/04/14 10:05:13;;;;;;;3.42;2.60;;;6.60;69.90;;;;;;5075492;28;20249;-76
2021/04/14 10:07:43;;;;;;;2.45;1.92;;;6.50;70.30;;;;;;5075274;28;20027;-76
2021/04/14 10:10:10;;;;;;;4.25;3.03;;;6.40;70.60;;;;;;5075313;28;20044;-77
2021/04/14 10:12:36;;;;;;;3.80;2.28;;;6.30;70.70;;;;;;5075273;28;20113;-76
2021/04/14 10:15:05;;;;;;;3.88;2.58;;;6.10;70.90;;;;;;5074552;28;20031;-77
2021/04/14 10:17:32;;;;;;;2.73;2.13;;;6.10;71.20;;;;;;5074998;28;20043;-78
2021/04/14 10:20:26;;;;;;;2.80;2.10;;;6.10;71.10;;;;;;5074818;28;20832;-78
2021/04/14 10:22:52;;;;;;;3.10;2.30;;;6.20;71.00;;;;;;5074594;28;20109;-78
2021/04/14 10:25:31;;;;;;;2.55;1.98;;;6.20;70.80;;;;;;5072732;28;20027;-78
2021/04/14 10:28:05;;;;;;;3.70;2.53;;;6.40;70.70;;;;;;5073326;28;20404;-78
2021/04/14 10:30:34;;;;;;;3.40;2.00;;;6.50;70.40;;;;;;5074170;28;20028;-78
2021/04/14 10:33:02;;;;;;;2.53;1.98;;;6.60;70.40;;;;;;5069792;28;20078;-77
2021/04/14 10:35:28;;;;;;;2.65;2.05;;;6.70;70.30;;;;;;5074850;28;20035;-78
2021/04/14 10:37:54;;;;;;;3.58;2.15;;;6.80;70.20;;;;;;5074608;28;20027;-78
2021/04/14 10:40:31;;;;;;;2.65;2.22;;;6.80;70.10;;;;;;5073596;28;20043;-77
2021/04/14 10:42:58;;;;;;;3.35;2.42;;;6.80;70.00;;;;;;5074255;28;20067;-77
2021/04/14 10:45:25;;;;;;;2.90;2.25;;;7.00;70.00;;;;;;5074661;28;20042;-79
2021/04/14 10:47:55;;;;;;;3.47;1.83;;;7.20;69.60;;;;;;5069684;28;20466;-77
2021/04/14 10:50:30;;;;;;;3.95;2.55;;;7.40;69.30;;;;;;5072958;28;20024;-77
2021/04/14 10:53:11;;;;;;;1.70;1.60;;;7.70;69.00;;;;;;5073121;28;20039;-76
2021/04/14 10:55:40;;;;;;;3.20;2.10;;;7.80;68.60;;;;;;5074197;28;20054;-78
2021/04/14 10:58:07;;;;;;;2.47;2.20;;;8.00;68.40;;;;;;5073318;28;20431;-78
2021/04/14 11:00:37;;;;;;;2.70;2.15;;;7.90;68.40;;;;;;5074157;28;20017;-77
2021/04/14 11:03:13;;;;;;;3.30;2.28;;;7.80;68.70;;;;;;5073897;28;20059;-76
2021/04/14 11:05:47;;;;;;;2.38;1.88;;;7.70;68.80;;;;;;5073796;28;20039;-77
2021/04/14 11:08:14;;;;;;;3.13;2.83;;;7.70;69.10;;;;;;5057383;28;20025;-78
2021/04/14 11:10:41;;;;;;;2.90;2.30;;;7.60;69.30;;;;;;5052889;28;20374;-78
2021/04/14 11:13:14;;;;;;;2.88;1.90;;;7.50;69.20;;;;;;5052855;28;20021;-76
2021/04/14 11:15:45;;;;;;;2.72;1.80;;;7.50;69.40;;;;;;5053204;28;20045;-78
2021/04/14 11:18:13;;;;;;;2.90;2.05;;;7.40;69.40;;;;;;5054209;28;20385;-77
2021/04/14 11:20:42;;;;;;;2.35;1.98;;;7.40;69.40;;;;;;5053779;28;20400;-77
2021/04/14 11:23:20;;;;;;;1.55;1.45;;;7.60;69.20;;;;;;5061841;28;20020;-76
2021/04/14 11:25:46;;;;;;;1.80;1.48;;;7.80;69.00;;;;;;5055218;28;20044;-76
2021/04/14 11:28:18;;;;;;;2.47;1.90;;;8.00;68.60;;;;;;5057858;28;20028;-78
2021/04/14 11:30:57;;;;;;;1.88;1.63;;;8.30;68.30;;;;;;5072997;28;20021;-77
2021/04/14 11:33:40;;;;;;;3.10;2.57;;;8.50;67.80;;;;;;5073578;28;20028;-78
2021/04/14 11:36:20;;;;;;;2.05;1.85;;;8.60;67.50;;;;;;5073046;28;20517;-78
2021/04/14 11:39:15;;;;;;;2.25;1.70;;;8.80;67.30;;;;;;5073359;28;20021;-77
2021/04/14 11:41:44;;;;;;;1.83;1.60;;;8.90;67.00;;;;;;5055785;28;20033;-75
2021/04/14 11:44:25;;;;;;;2.47;1.90;;;9.20;66.70;;;;;;5053196;28;20052;-78
2021/04/14 11:47:02;;;;;;;2.38;1.83;;;9.30;66.60;;;;;;5052221;28;20470;-77
2021/04/14 11:49:31;;;;;;;3.95;2.58;;;9.60;67.20;;;;;;5053331;28;20021;-76
2021/04/14 11:52:00;;;;;;;4.20;2.40;;;10.00;65.90;;;;;;5051920;28;20032;-75
2021/04/14 11:54:28;;;;;;;2.97;2.22;;;10.60;65.40;;;;;;5053346;28;20021;-78
2021/04/14 11:57:16;;;;;;;2.97;2.35;;;11.10;65.40;;;;;;5052591;28;20025;-77
2021/04/14 11:59:50;;;;;;;2.40;2.20;;;11.40;64.10;;;;;;5053254;28;20031;-78
2021/04/14 12:02:25;;;;;;;2.42;2.22;;;11.60;64.00;;;;;;5051552;28;20108;-78
2021/04/14 12:05:02;;;;;;;3.92;2.38;;;12.10;63.70;;;;;;5053258;28;20029;-79
2021/04/14 12:07:28;;;;;;;3.08;2.10;;;12.30;63.10;;;;;;5053347;28;20029;-76
2021/04/14 12:09:54;;;;;;;3.42;2.50;;;12.30;63.30;;;;;;5052516;28;20052;-75
2021/04/14 12:12:20;;;;;;;3.15;2.10;;;12.10;63.70;;;;;;5053054;28;20025;-78
2021/04/14 12:14:46;;;;;;;2.55;2.20;;;11.90;64.10;;;;;;5053668;28;20025;-78
2021/04/14 12:17:12;;;;;;;2.75;1.90;;;11.70;64.50;;;;;;5048217;28;20032;-77
2021/04/14 12:19:39;;;;;;;3.10;2.17;;;11.70;64.70;;;;;;5052184;28;20021;-80
2021/04/14 12:22:04;;;;;;;2.63;1.88;;;11.70;65.00;;;;;;5052551;28;20060;-78
2021/04/14 12:24:30;;;;;;;3.20;2.42;;;11.90;64.70;;;;;;5052224;28;20025;-76
2021/04/14 12:26:56;;;;;;;2.08;1.90;;;12.00;64.20;;;;;;5052846;28;20354;-78
2021/04/14 12:29:21;;;;;;;1.77;1.50;;;11.90;64.10;;;;;;5052983;28;20021;-77
2021/04/14 12:31:47;;;;;;;3.33;1.92;;;11.70;64.50;;;;;;5052829;28;20029;-79
2021/04/14 12:34:13;;;;;;;2.15;1.92;;;11.60;64.70;;;;;;5053011;28;20487;-78
2021/04/14 12:36:40;;;;;;;3.10;2.42;;;11.50;64.70;;;;;;5051478;28;20040;-79
2021/04/14 12:39:07;;;;;;;3.22;1.77;;;11.40;64.70;;;;;;5052942;28;20481;-79
2021/04/14 12:41:34;;;;;;;2.30;1.50;;;11.40;64.70;;;;;;5053220;28;20029;-76
2021/04/14 12:44:00;;;;;;;4.20;2.15;;;11.40;64.70;;;;;;5053389;28;20025;-76
2021/04/14 12:46:25;;;;;;;2.63;1.85;;;11.60;64.30;;;;;;5052835;28;20032;-78
2021/04/14 12:48:51;;;;;;;2.53;2.00;;;11.90;63.80;;;;;;5056809;28;20505;-76
2021/04/14 12:51:24;;;;;;;2.38;1.77;;;12.30;63.30;;;;;;5056907;28;20021;-85
2021/04/14 12:54:27;;;;;;;2.88;2.28;;;12.70;62.50;;;;;;5056389;28;20028;-77
2021/04/14 12:56:58;;;;;;;2.67;1.80;;;12.70;62.20;;;;;;5056660;28;20098;-76
2021/04/14 12:59:28;;;;;;;2.08;1.73;;;12.20;62.90;;;;;;5056923;28;20021;-76
2021/04/14 13:02:05;;;;;;;1.92;1.50;;;11.90;63.70;;;;;;5056002;28;20036;-75
2021/04/14 13:05:01;;;;;;;1.63;1.52;;;11.60;64.00;;;;;;5076610;28;20028;-77
2021/04/14 13:07:32;;;;;;;1.73;1.52;;;11.40;64.40;;;;;;5070860;28;20052;-77
2021/04/14 13:10:01;;;;;;;1.70;1.60;;;11.20;64.60;;;;;;5074591;28;20400;-75
2021/04/14 13:12:28;;;;;;;;;;;11.10;64.50;;;;;;5076529;28;20024;-78